Tarboro, NC

6:33 AM EDT on July 21, 2017 (GMT -0400)
Tarboro-edgecombe

Weather History for KETC - March, 2013

Change the Weather History Date:

Thursday, March 21, 2013

  Actual Average Record
Temperature  
Mean Temperature 38 °F -  
Max Temperature 77 °F 63 °F 87 °F (1968)
Min Temperature 32 °F 39 °F 23 °F (1956)
Degree Days  
Heating Degree Days 27    
Moisture  
Dew Point 23 °F    
Average Humidity 56    
Maximum Humidity 94    
Minimum Humidity 27    
Precipitation  
Precipitation 0.00 in - - ()
Sea Level Pressure  
Sea Level Pressure 29.80 in    
Wind  
Wind Speed 6 mph (NW)    
Max Wind Speed 20 mph    
Max Gust Speed 26 mph    
Visibility 10 miles    
Events      
Averages and records for this station are not official NWS values.
T = Trace of Precipitation, MM = Missing Value Source: NWS Daily Summary

Daily Weather History Graph

Daily Weather History Graph

Search for Another Location

Airport or City:

Trip Planner

Search our weather history database for the weather conditions in past years. The results will help you decide how hot, cold, wet, or windy it might be!

Date:

Astronomy

Mar. 21, 2013 Rise Set
Actual Time 7:12 AM EDT 7:23 PM EDT
Civil Twilight 6:46 AM EDT 7:48 PM EDT
Nautical Twilight 6:16 AM EDT 8:18 PM EDT
Astronomical Twilight 5:46 AM EDT 8:48 PM EDT
Moon 2:00 PM EDT 3:23 AM EDT
Length of Visible Light 13h 02m
Length of Day
12h 10m
Waxing Gibbous, 68% of the Moon is Illuminated
Mar 21
Waxing Gibbous
Mar 27
Full
Apr 3
Last Quarter
Apr 10
New
Apr 18
First Quarter

Hourly Weather History & Observations

Time (EDT) Temp. Windchill Dew Point Humidity Pressure Visibility Wind Dir Wind Speed Gust Speed Precip Events Conditions
12:15 AM 34.5 °F 30.4 °F 32.0 °F 90% 29.80 in 10.0 mi South 4.6 mph - N/A   Clear
12:35 AM 38.1 °F 33.7 °F 30.4 °F 74% 29.79 in 10.0 mi South 5.8 mph - N/A   Clear
12:55 AM 40.1 °F - 30.4 °F 68% 29.78 in 10.0 mi Calm Calm - N/A   Clear
1:15 AM 35.8 °F - 31.5 °F 84% 29.77 in 10.0 mi Calm Calm - N/A   Clear
1:35 AM 33.3 °F 30.2 °F 30.6 °F 90% 29.76 in 10.0 mi ESE 3.5 mph - N/A   Clear
1:55 AM 33.1 °F - 30.6 °F 90% 29.75 in 10.0 mi Calm Calm - N/A   Clear
2:15 AM 32.9 °F - 30.6 °F 91% 29.74 in 10.0 mi Calm Calm - N/A   Scattered Clouds
2:55 AM 32.7 °F 29.6 °F 31.1 °F 94% 29.73 in 10.0 mi West 3.5 mph - N/A   Overcast
3:15 AM 34.2 °F - 30.9 °F 88% 29.74 in 10.0 mi Calm Calm - N/A   Overcast
3:35 AM 34.9 °F - 31.8 °F 89% 29.73 in 10.0 mi Calm Calm - N/A   Overcast
3:55 AM 35.6 °F - 32.4 °F 88% 29.72 in 10.0 mi Calm Calm - N/A   Overcast
4:15 AM 36.9 °F 34.3 °F 32.2 °F 83% 29.72 in 10.0 mi WSW 3.5 mph - N/A   Overcast
4:35 AM 37.4 °F 32.8 °F 32.2 °F 81% 29.72 in 10.0 mi West 5.8 mph - N/A   Overcast
4:55 AM 39.9 °F 37.8 °F 30.0 °F 68% 29.72 in 10.0 mi WNW 3.5 mph - N/A   Overcast
5:15 AM 40.6 °F - 29.8 °F 65% 29.71 in 10.0 mi Calm Calm - N/A   Overcast
5:35 AM 40.5 °F - 30.7 °F 68% 29.71 in 10.0 mi Calm Calm - N/A   Scattered Clouds
5:55 AM 40.8 °F 36.9 °F 31.6 °F 70% 29.71 in 10.0 mi NW 5.8 mph - N/A   Clear
6:15 AM 40.8 °F 36.9 °F 32.0 °F 71% 29.72 in 10.0 mi WNW 5.8 mph - N/A   Clear
6:35 AM 39.6 °F 35.4 °F 32.0 °F 74% 29.72 in 10.0 mi NW 5.8 mph - N/A   Clear
6:55 AM 39.2 °F 34.2 °F 32.0 °F 75% 29.73 in 10.0 mi WNW 6.9 mph - N/A   Clear
7:15 AM 39.2 °F 33.0 °F 31.1 °F 73% 29.73 in 10.0 mi NW 9.2 mph - N/A   Clear
7:35 AM 39.2 °F 33.6 °F 29.8 °F 69% 29.73 in 10.0 mi NW 8.1 mph - N/A   Clear
7:55 AM 39.4 °F 34.5 °F 29.1 °F 67% 29.73 in 10.0 mi NNW 6.9 mph - N/A   Clear
8:15 AM 39.9 °F 33.9 °F 28.6 °F 64% 29.74 in 10.0 mi NNW 9.2 mph 18.4 mph N/A   Clear
8:35 AM 40.5 °F 34.1 °F 27.9 °F 61% 29.75 in 10.0 mi North 10.4 mph 20.7 mph N/A   Clear
8:55 AM 41.4 °F 34.7 °F 27.7 °F 58% 29.75 in 10.0 mi North 11.5 mph - N/A   Scattered Clouds
9:15 AM 41.9 °F 36.3 °F 27.5 °F 57% 29.75 in 10.0 mi North 9.2 mph 17.3 mph N/A   Mostly Cloudy
9:35 AM 41.4 °F 35.2 °F 27.3 °F 57% 29.75 in 10.0 mi NNW 10.4 mph - N/A   Overcast
9:55 AM 41.0 °F 34.7 °F 27.0 °F 57% 29.77 in 10.0 mi NNW 10.4 mph 18.4 mph N/A   Overcast
10:15 AM 41.7 °F 35.6 °F 27.1 °F 56% 29.76 in 10.0 mi NNW 10.4 mph 17.3 mph N/A   Mostly Cloudy
10:35 AM 42.4 °F 35.3 °F 27.0 °F 54% 29.77 in 10.0 mi North 13.8 mph 19.6 mph N/A   Mostly Cloudy
10:55 AM 42.6 °F 36.3 °F 26.4 °F 53% 29.77 in 10.0 mi NNW 11.5 mph - N/A   Mostly Cloudy
11:15 AM 43.3 °F 37.2 °F 26.4 °F 51% 29.77 in 10.0 mi North 11.5 mph - N/A   Overcast
11:35 AM 42.4 °F 37.0 °F 25.9 °F 52% 29.78 in 10.0 mi NNW 9.2 mph 16.1 mph N/A   Overcast
11:55 AM 40.8 °F 33.7 °F 26.2 °F 56% 29.79 in 10.0 mi NNW 12.7 mph 18.4 mph N/A   Overcast
12:15 PM 39.7 °F 33.7 °F 26.4 °F 59% 29.79 in 10.0 mi NNW 9.2 mph - N/A   Overcast
12:35 PM 39.6 °F 32.1 °F 27.0 °F 61% 29.79 in 10.0 mi North 12.7 mph 19.6 mph N/A   Overcast
12:55 PM 39.7 °F 32.3 °F 27.5 °F 62% 29.79 in 10.0 mi NNW 12.7 mph 19.6 mph N/A   Overcast
1:15 PM 39.4 °F 32.7 °F 28.0 °F 64% 29.80 in 10.0 mi NNW 10.4 mph 17.3 mph N/A   Overcast
1:35 PM 39.7 °F 33.2 °F 27.1 °F 61% 29.79 in 10.0 mi NW 10.4 mph 19.6 mph N/A   Overcast
1:55 PM 40.5 °F 34.6 °F 26.2 °F 57% 29.79 in 10.0 mi WNW 9.2 mph 16.1 mph N/A   Overcast
2:15 PM 39.9 °F 32.1 °F 26.8 °F 59% 29.80 in 10.0 mi WNW 13.8 mph 20.7 mph N/A   Overcast
2:35 PM 40.5 °F 32.8 °F 27.7 °F 60% 29.79 in 10.0 mi NW 13.8 mph 17.3 mph N/A   Overcast
2:55 PM 42.1 °F 38.4 °F 26.6 °F 54% 29.78 in 10.0 mi NW 5.8 mph 18.4 mph N/A   Overcast
3:15 PM 43.2 °F 38.4 °F 25.0 °F 49% 29.77 in 10.0 mi NNW 8.1 mph - N/A   Scattered Clouds
3:35 PM 43.7 °F 37.7 °F 23.2 °F 44% 29.77 in 10.0 mi WNW 11.5 mph 18.4 mph N/A   Mostly Cloudy
3:55 PM 43.9 °F 38.3 °F 22.1 °F 42% 29.77 in 10.0 mi West 10.4 mph 18.4 mph N/A   Mostly Cloudy
4:15 PM 44.8 °F 38.3 °F 21.7 °F 40% 29.77 in 10.0 mi WNW 13.8 mph 19.6 mph N/A   Mostly Cloudy
4:55 PM 43.3 °F 36.5 °F 17.2 °F 35% 29.78 in 10.0 mi WNW 13.8 mph 20.7 mph N/A   Overcast
5:15 PM 43.3 °F 38.1 °F 16.0 °F 33% 29.78 in 10.0 mi NW 9.2 mph 23.0 mph N/A   Overcast
5:35 PM 43.7 °F 37.3 °F 13.6 °F 30% 29.79 in 10.0 mi NW 12.7 mph 23.0 mph N/A   Overcast
5:55 PM 44.6 °F 36.9 °F 12.7 °F 28% 29.80 in 10.0 mi WNW 18.4 mph 24.2 mph N/A   Scattered Clouds
6:15 PM 44.2 °F 36.2 °F 12.4 °F 28% 29.82 in 10.0 mi WNW 19.6 mph 26.5 mph N/A   Clear
6:35 PM 43.2 °F 36.2 °F 10.6 °F 27% 29.83 in 10.0 mi WNW 13.8 mph 21.9 mph N/A   Clear
6:55 PM 41.9 °F 35.0 °F 10.4 °F 28% 29.84 in 10.0 mi WNW 12.7 mph 19.6 mph N/A   Clear
7:15 PM 40.6 °F 33.4 °F 9.7 °F 28% 29.85 in 10.0 mi WNW 12.7 mph 20.7 mph N/A   Clear
7:35 PM 39.4 °F 33.2 °F 10.2 °F 30% 29.86 in 10.0 mi WNW 9.2 mph - N/A   Clear
7:55 PM 38.3 °F 30.1 °F 10.6 °F 32% 29.88 in 10.0 mi WNW 13.8 mph 18.4 mph N/A   Clear
8:15 PM 37.8 °F 30.7 °F 9.7 °F 31% 29.89 in 10.0 mi WNW 10.4 mph 17.3 mph N/A   Clear
8:35 PM 37.0 °F 31.0 °F 9.7 °F 32% 29.90 in 10.0 mi WNW 8.1 mph - N/A   Clear
8:55 PM 36.9 °F 31.4 °F 9.9 °F 33% 29.91 in 10.0 mi NW 6.9 mph - N/A   Clear
9:15 PM 36.0 °F 29.0 °F 10.0 °F 34% 29.92 in 10.0 mi NW 9.2 mph - N/A   Clear
9:35 PM 35.6 °F 29.2 °F 9.9 °F 34% 29.93 in 10.0 mi NW 8.1 mph - N/A   Clear
9:55 PM 35.1 °F 31.0 °F 10.2 °F 36% 29.94 in 10.0 mi WNW 4.6 mph - N/A   Clear
10:15 PM 34.3 °F 27.7 °F 10.6 °F 37% 29.94 in 10.0 mi NW 8.1 mph - N/A   Clear
10:35 PM 34.2 °F 28.2 °F 10.4 °F 37% 29.95 in 10.0 mi NW 6.9 mph - N/A   Clear
10:55 PM 33.8 °F 28.6 °F 10.6 °F 38% 29.95 in 10.0 mi WNW 5.8 mph - N/A   Clear
11:15 PM 33.3 °F 28.9 °F 10.9 °F 40% 29.96 in 10.0 mi NW 4.6 mph - N/A   Clear
11:35 PM 32.4 °F 26.9 °F 11.8 °F 43% 29.96 in 10.0 mi WNW 5.8 mph - N/A   Clear
11:55 PM 32.0 °F 27.5 °F 12.2 °F 44% 29.96 in 10.0 mi WNW 4.6 mph - N/A   Clear